Flight Track Log - Related Links

Times and Time Zones

All times are in EDT time to prevent confusion due to time zone crossing. See the N75ZM flight status page for this flight to view local times or setup timezone preferences in your user account.

Time Position Orientation Groundspeed Altitude Reporting Facility
EDT Latitude Longitude Course Direction KTS MPH feet Rate Location/Type
Wed 07:47:14 AM 33.9000 -84.3000 100° East 92 106 2,000  Level Atlanta TRACON
Wed 07:48:14 AM 33.9167 -84.2833 40° Northeast 119 137 2,900 900 Climbing Atlanta TRACON
Wed 07:49:14 AM 33.9333 -84.2500 59° Northeast 128 147 3,800 857 Climbing Atlanta TRACON
Wed 07:50:20 AM 33.9500 -84.2000 68° East 134 154 4,700 762 Climbing Atlanta TRACON
Wed 07:51:20 AM 33.9500 -84.1667 90° East 131 151 5,400 750 Climbing Atlanta TRACON
Wed 07:52:00 AM 33.8194 -84.0355 100° East  Level Estimated
Wed 07:52:20 AM 33.9500 -84.1167 90° East 133 153 6,200  Level Atlanta TRACON
Wed 07:53:20 AM 33.9500 -84.0667 90° East 136 157 6,800 450 Climbing Atlanta TRACON
Wed 07:54:20 AM 33.9500 -84.0167 90° East 152 175 7,100 150 Climbing Atlanta TRACON
Wed 07:55:20 AM 33.9500 -83.9667 90° East 177 204 7,100  Level Atlanta TRACON
Wed 07:56:26 AM 33.9500 -83.9000 90° East 180 207 7,100  Level Atlanta TRACON
Wed 07:57:20 AM 33.9500 -83.8500 90° East 178 205 7,100  Level Atlanta TRACON
Wed 07:58:20 AM 33.9333 -83.7833 107° East 175 201 7,100  Level Atlanta TRACON
Wed 07:59:20 AM 33.9333 -83.7333 90° East 173 199 7,100  Level Atlanta TRACON
Wed 08:00:20 AM 33.9167 -83.6833 112° Southeast 172 198 7,100  Level Atlanta TRACON
Wed 08:01:20 AM 33.9000 -83.6167 107° East 173 199 7,100  Level Atlanta TRACON
Wed 08:02:21 AM 33.8833 -83.5667 112° Southeast 174 200 7,100  Level Atlanta TRACON
Wed 08:03:20 AM 33.8667 -83.5167 112° Southeast 175 201 7,100  Level Atlanta TRACON
Wed 08:04:20 AM 33.8500 -83.4500 107° East 176 203 7,100  Level Atlanta TRACON
Wed 08:05:26 AM 33.8333 -83.3833 107° East 177 204 7,100  Level Atlanta TRACON
Wed 08:06:26 AM 33.8333 -83.3333 90° East 177 204 7,100  Level Atlanta TRACON
Wed 08:07:20 AM 33.8167 -83.2833 112° Southeast 177 204 7,100  Level Atlanta TRACON
Wed 08:08:20 AM 33.8000 -83.2333 112° Southeast 177 204 7,100  Level Atlanta TRACON
Wed 08:09:20 AM 33.7833 -83.1833 112° Southeast 175 201 7,100  Level Atlanta TRACON
Wed 08:11:00 AM 33.7433 -83.1031 121° Southeast  Level FlightAware
Wed 08:18:00 AM 33.6193 -82.7347 107° East  Level FlightAware
Wed 08:19:00 AM 33.6054 -82.6812 107° East  Level FlightAware
Wed 08:20:00 AM 33.5915 -82.6277 107° East  Level FlightAware
Wed 08:21:00 AM 33.5776 -82.5743 107° East  Level FlightAware
Wed 08:22:00 AM 33.5637 -82.5208 107° East  Level FlightAware
Wed 08:23:00 AM 33.5498 -82.4674 107° East  Level FlightAware
Wed 08:24:00 AM 33.5358 -82.4140 107° East  Level FlightAware
Wed 08:25:00 AM 33.5218 -82.3606 107° East  Level FlightAware
Wed 08:26:00 AM 33.5078 -82.3072 107° East  Level FlightAware
Wed 08:27:00 AM 33.4937 -82.2538 108° East  Level FlightAware
Wed 08:28:00 AM 33.4796 -82.2005 108° East  Level FlightAware
Wed 08:29:00 AM 33.4655 -82.1472 108° East  Level FlightAware
Wed 08:30:00 AM 33.4514 -82.0939 108° East  Level FlightAware
Wed 08:31:00 AM 33.4373 -82.0406 108° East  Level FlightAware
Wed 08:32:00 AM 33.4231 -81.9873 108° East  Level FlightAware
Wed 08:33:00 AM 33.4090 -81.9341 108° East  Level FlightAware
Wed 08:34:00 AM 33.3948 -81.8808 108° East  Level FlightAware
Wed 08:34:52 AM 33.4036 -81.7853 108° East 173 199 7,100  Level Jacksonville Center
Wed 08:35:00 AM 33.3805 -81.8276 108° East  Level FlightAware
Wed 08:35:52 AM 33.3886 -81.7308 108° East 184 212 7,100  Level Jacksonville Center
Wed 08:36:00 AM 33.3663 -81.7744 108° East  Level FlightAware
Wed 08:36:53 AM 33.3736 -81.6764 108° East 184 212 7,100  Level Jacksonville Center
Wed 08:37:00 AM 33.3520 -81.7212 108° East  Level FlightAware
Wed 08:37:52 AM 33.3564 -81.6194 110° East 184 212 7,100  Level Jacksonville Center
Wed 08:38:00 AM 33.3377 -81.6680 108° East  Level FlightAware
Wed 08:38:53 AM 33.3411 -81.5650 109° East 184 212 7,100  Level Jacksonville Center
Wed 08:39:00 AM 33.3234 -81.6149 108° East  Level FlightAware
Wed 08:39:52 AM 33.3258 -81.5103 108° East 179 206 7,100  Level Jacksonville Center
Wed 08:40:00 AM 33.3091 -81.5618 108° East  Level FlightAware
Wed 08:40:52 AM 33.3086 -81.4536 110° East 179 206 7,100  Level Jacksonville Center
Wed 08:41:52 AM 33.2953 -81.3992 106° East 174 200 7,100  Level Jacksonville Center
Wed 08:42:52 AM 33.2758 -81.3447 113° Southeast 169 194 7,100  Level Jacksonville Center
Wed 08:43:52 AM 33.2606 -81.2853 107° East 169 194 7,100  Level Jacksonville Center
Wed 08:44:52 AM 33.2453 -81.2311 109° East 169 194 7,100  Level Jacksonville Center
Wed 08:45:52 AM 33.2300 -81.1767 109° East 169 194 7,100  Level Jacksonville Center
Wed 08:46:52 AM 33.2125 -81.1200 110° East 169 194 7,100  Level Jacksonville Center
Wed 08:47:52 AM 33.1992 -81.0656 106° East 169 194 7,100  Level Jacksonville Center
Wed 08:48:52 AM 33.1817 -81.0089 110° East 169 194 7,100  Level Jacksonville Center
Wed 08:49:52 AM 33.1661 -80.9544 109° East 169 194 7,100  Level Jacksonville Center
Wed 08:50:52 AM 33.1508 -80.8978 108° East 169 194 7,100  Level Jacksonville Center
Wed 08:51:52 AM 33.1353 -80.8436 109° East 169 194 7,100  Level Jacksonville Center
Wed 08:52:52 AM 33.1178 -80.7894 111° Southeast 169 194 7,100 -100 Level Jacksonville Center
Wed 08:53:52 AM 33.1022 -80.7328 108° East 169 194 6,900 -350 Descending Jacksonville Center
Wed 08:54:52 AM 33.0844 -80.6736 110° East 175 201 6,400 -450 Descending Jacksonville Center
Wed 08:55:52 AM 33.0667 -80.6147 110° East 181 208 6,000 -450 Descending Jacksonville Center
Wed 08:56:52 AM 33.0508 -80.5531 107° East 186 214 5,500 -496 Descending Jacksonville Center
Wed 08:57:53 AM 33.0331 -80.4942 110° East 191 220 5,000 -500 Descending Jacksonville Center
Wed 08:58:52 AM 33.0092 -80.4428 119° Southeast 186 214 4,500 -508 Descending Jacksonville Center
Wed 09:00:00 AM 32.9903 -80.3871 112° Southeast  Level FlightAware
Wed 09:07:00 AM 32.8856 -80.0389 115° Southeast  Level FlightAware
Wed 09:08:00 AM 32.8833 -80.0333 115° Southeast  Level FlightAware
Wed 09:09:00 AM 32.8986 -80.0405 115° Southeast  Level Estimated
Wed 09:10:00 AM 32.8986 -80.0405 115° Southeast  Level Estimated
Wed 09:11:00 AM 32.8986 -80.0405 115° Southeast  Level Estimated
Wed 09:12:00 AM 32.8986 -80.0405 115° Southeast  Level Estimated
Wed 09:13:00 AM 32.8986 -80.0405 115° Southeast  Level Estimated
Wed 09:14:00 AM 32.8986 -80.0405 115° Southeast  Level Estimated
Wed 09:15:00 AM 32.8986 -80.0405 115° Southeast  Level Estimated
Wed 09:16:00 AM 32.8986 -80.0405 115° Southeast  Level Estimated
Wed 09:17:00 AM 32.8986 -80.0405 115° Southeast  Level Estimated
Wed 09:18:00 AM 32.8986 -80.0405 115° Southeast  Level Estimated

Login

Don't have an account? Register now (free) for customized features, flight alerts, and more!